createdAt,value
2023-01-13T00:01:27.047Z,97504.40
2023-01-13T00:03:54.075Z,97500.60
2023-01-13T00:06:23.100Z,97497.20
2023-01-13T00:08:51.252Z,97497.40
2023-01-13T00:11:19.623Z,97487.00
2023-01-13T00:13:46.785Z,97489.60
2023-01-13T00:16:16.228Z,97483.80
2023-01-13T00:18:43.535Z,97483.20
2023-01-13T00:21:14.547Z,97478.60
2023-01-13T00:23:42.397Z,97477.60
2023-01-13T00:26:13.182Z,97475.00
2023-01-13T00:28:40.127Z,97468.40
2023-01-13T00:31:08.700Z,97466.20
2023-01-13T00:33:36.471Z,97461.00
2023-01-13T00:36:05.171Z,97466.00
2023-01-13T00:38:33.114Z,97463.00
2023-01-13T00:41:05.167Z,97458.00
2023-01-13T00:43:34.070Z,97463.00
2023-01-13T00:46:02.085Z,97464.40
2023-01-13T00:48:30.328Z,97454.60
2023-01-13T00:51:01.513Z,97458.00
2023-01-13T00:53:30.011Z,97459.60
2023-01-13T00:56:01.369Z,97464.80
2023-01-13T00:58:30.847Z,97471.00
2023-01-13T01:01:05.395Z,97473.40
2023-01-13T01:03:32.538Z,97471.20
2023-01-13T01:06:06.386Z,97466.20
2023-01-13T01:08:34.814Z,97466.20
2023-01-13T01:11:06.813Z,97465.40
2023-01-13T01:13:34.507Z,97465.20
2023-01-13T01:16:07.083Z,97465.60
2023-01-13T01:18:35.728Z,97462.80
2023-01-13T01:21:03.411Z,97459.20
2023-01-13T01:23:31.172Z,97452.20
2023-01-13T01:26:10.920Z,97452.00
2023-01-13T01:28:38.803Z,97451.20
2023-01-13T01:31:13.563Z,97464.00
2023-01-13T01:33:43.397Z,97466.40
2023-01-13T01:36:12.006Z,97467.00
2023-01-13T01:38:38.972Z,97461.60
2023-01-13T01:41:06.804Z,97463.40
2023-01-13T01:44:04.487Z,97459.80
2023-01-13T01:46:39.920Z,97463.00
2023-01-13T01:49:25.726Z,97458.20
2023-01-13T01:51:57.757Z,97462.40
2023-01-13T01:54:34.032Z,97456.60
2023-01-13T01:57:01.276Z,97454.00
2023-01-13T01:59:31.639Z,97450.40
2023-01-13T02:01:59.087Z,97448.40
2023-01-13T02:04:30.716Z,97448.00
2023-01-13T02:06:58.114Z,97442.60
2023-01-13T02:09:26.189Z,97440.40
2023-01-13T02:12:11.440Z,97432.80
2023-01-13T02:14:40.980Z,97427.40
2023-01-13T02:17:34.794Z,97430.20
2023-01-13T02:20:39.027Z,97434.40
2023-01-13T02:24:00.760Z,97436.60
2023-01-13T02:26:48.747Z,97422.20
2023-01-13T02:30:08.048Z,97419.20
2023-01-13T02:32:49.632Z,97408.80
2023-01-13T02:36:04.039Z,97409.80
2023-01-13T02:38:39.752Z,97405.00
2023-01-13T02:41:52.663Z,97406.60
2023-01-13T02:44:25.332Z,97414.20
2023-01-13T02:46:58.045Z,97408.60
2023-01-13T02:49:54.260Z,97413.00
2023-01-13T02:52:31.664Z,97410.80
2023-01-13T02:55:11.508Z,97419.80
2023-01-13T02:57:41.162Z,97421.60
2023-01-13T03:00:11.355Z,97426.00
2023-01-13T03:02:39.044Z,97423.60
2023-01-13T03:05:06.361Z,97424.60
2023-01-13T03:08:09.601Z,97416.60
2023-01-13T03:11:18.359Z,97416.40
2023-01-13T03:13:59.384Z,97409.40
2023-01-13T03:17:12.169Z,97410.40
2023-01-13T03:19:53.244Z,97411.80
2023-01-13T03:22:45.174Z,97414.60
2023-01-13T03:25:25.748Z,97410.40
2023-01-13T03:28:01.624Z,97413.20
2023-01-13T03:30:42.950Z,97416.80
2023-01-13T03:33:20.048Z,97415.80
2023-01-13T03:35:51.736Z,97417.00
2023-01-13T03:38:28.385Z,97412.20
2023-01-13T03:40:59.688Z,97403.00
2023-01-13T03:43:50.870Z,97398.00
2023-01-13T03:46:24.747Z,97389.40
2023-01-13T03:48:57.327Z,97386.80
2023-01-13T03:51:28.899Z,97387.80
2023-01-13T03:53:59.712Z,97386.20
2023-01-13T03:56:36.492Z,97384.40
2023-01-13T03:59:08.099Z,97386.80
2023-01-13T04:01:44.957Z,97394.40
2023-01-13T04:04:35.114Z,97398.20
2023-01-13T04:07:26.772Z,97402.60
2023-01-13T04:09:57.062Z,97400.60
2023-01-13T04:12:54.323Z,97399.60
2023-01-13T04:15:25.440Z,97393.00
2023-01-13T04:17:53.661Z,97394.40
2023-01-13T04:20:21.601Z,97387.60
2023-01-13T04:22:48.351Z,97388.60
2023-01-13T04:25:15.286Z,97388.80
2023-01-13T04:27:42.057Z,97387.00
2023-01-13T04:30:09.698Z,97387.20
2023-01-13T04:32:36.535Z,97385.00
2023-01-13T04:35:03.886Z,97382.80
2023-01-13T04:37:30.611Z,97381.00
2023-01-13T04:39:58.540Z,97373.80
2023-01-13T04:42:25.331Z,97366.20
2023-01-13T04:44:52.175Z,97363.80
2023-01-13T04:47:18.881Z,97363.00
2023-01-13T04:49:45.756Z,97360.80
2023-01-13T04:52:12.802Z,97356.60
2023-01-13T04:54:39.552Z,97350.80
2023-01-13T04:57:06.344Z,97353.20
2023-01-13T04:59:34.607Z,97347.40
2023-01-13T05:02:01.737Z,97345.60
2023-01-13T05:04:28.855Z,97348.80
2023-01-13T05:06:55.648Z,97351.60
2023-01-13T05:09:22.371Z,97355.20
2023-01-13T05:12:07.816Z,97353.00
2023-01-13T05:14:53.239Z,97359.80
2023-01-13T05:17:22.811Z,97352.00
2023-01-13T05:19:49.792Z,97351.80
2023-01-13T05:22:35.333Z,97352.60
2023-01-13T05:25:20.890Z,97350.00
2023-01-13T05:27:56.563Z,97346.80
2023-01-13T05:30:29.751Z,97346.60
2023-01-13T05:32:57.252Z,97348.20
2023-01-13T05:35:24.774Z,97352.60
2023-01-13T05:37:51.911Z,97349.80
2023-01-13T05:40:37.970Z,97349.20
2023-01-13T05:43:20.420Z,97350.40
2023-01-13T05:46:05.363Z,97355.00
2023-01-13T05:48:38.588Z,97344.00
2023-01-13T05:51:08.395Z,97345.80
2023-01-13T05:53:35.603Z,97343.00
2023-01-13T05:56:07.208Z,97331.40
2023-01-13T05:58:34.827Z,97333.00
2023-01-13T06:01:07.280Z,97333.40
2023-01-13T06:03:34.893Z,97330.40
2023-01-13T06:06:04.076Z,97335.20
2023-01-13T06:08:31.922Z,97327.00
2023-01-13T06:10:58.668Z,97320.60
2023-01-13T06:13:25.847Z,97316.20
2023-01-13T06:15:56.948Z,97311.00
2023-01-13T06:18:24.233Z,97313.20
2023-01-13T06:20:51.071Z,97309.20
2023-01-13T06:23:17.826Z,97308.60
2023-01-13T06:25:50.715Z,97311.20
2023-01-13T06:28:17.542Z,97315.80
2023-01-13T06:30:50.936Z,97315.20
2023-01-13T06:33:27.508Z,97313.20
2023-01-13T06:35:58.355Z,97306.40
2023-01-13T06:38:28.960Z,97314.20
2023-01-13T06:40:55.808Z,97312.60
2023-01-13T06:43:22.607Z,97313.40
2023-01-13T06:45:50.977Z,97317.00
2023-01-13T06:48:20.171Z,97318.60
2023-01-13T06:50:46.902Z,97321.40
2023-01-13T06:53:13.712Z,97320.40
2023-01-13T06:55:40.515Z,97311.20
2023-01-13T06:58:07.824Z,97307.80
2023-01-13T07:00:37.816Z,97308.80
2023-01-13T07:03:10.458Z,97306.00
2023-01-13T07:05:37.856Z,97309.80
2023-01-13T07:08:04.981Z,97313.00
2023-01-13T07:10:32.647Z,97318.80
2023-01-13T07:13:22.060Z,97322.60
2023-01-13T07:15:59.442Z,97332.80
2023-01-13T07:18:28.536Z,97334.80
2023-01-13T07:20:57.627Z,97338.20
2023-01-13T07:23:26.885Z,97333.00
2023-01-13T07:25:56.344Z,97336.40
2023-01-13T07:28:23.772Z,97332.00
2023-01-13T07:30:50.615Z,97334.00
2023-01-13T07:33:18.648Z,97328.80
2023-01-13T07:35:48.131Z,97329.20
2023-01-13T07:38:16.138Z,97326.40
2023-01-13T07:40:42.900Z,97332.80
2023-01-13T07:43:30.843Z,97326.80
2023-01-13T07:45:59.184Z,97331.00
2023-01-13T07:48:27.251Z,97328.20
2023-01-13T07:50:54.953Z,97336.00
2023-01-13T07:53:22.819Z,97337.20
2023-01-13T07:55:49.528Z,97336.40
2023-01-13T07:58:16.300Z,97330.20
2023-01-13T08:00:43.030Z,97327.00
2023-01-13T08:03:09.847Z,97330.00
2023-01-13T08:05:36.752Z,97336.00
2023-01-13T08:08:03.450Z,97331.00
2023-01-13T08:10:30.193Z,97329.60
2023-01-13T08:13:15.575Z,97327.40
2023-01-13T08:15:42.618Z,97320.80
2023-01-13T08:18:09.409Z,97326.20
2023-01-13T08:20:36.617Z,97332.40
2023-01-13T08:23:05.558Z,97321.00
2023-01-13T08:25:34.094Z,97330.00
2023-01-13T08:28:00.875Z,97333.40
2023-01-13T08:30:28.289Z,97338.40
2023-01-13T08:32:55.244Z,97341.60
2023-01-13T08:35:22.762Z,97340.60
2023-01-13T08:37:50.255Z,97343.80
2023-01-13T08:40:18.221Z,97343.80
2023-01-13T08:42:47.032Z,97350.60
2023-01-13T08:45:15.434Z,97353.20
2023-01-13T08:47:42.191Z,97349.60
2023-01-13T08:50:10.449Z,97357.40
2023-01-13T08:52:37.244Z,97357.60
2023-01-13T08:55:04.286Z,97359.40
2023-01-13T08:57:31.070Z,97357.60
2023-01-13T08:59:57.906Z,97364.40
2023-01-13T09:02:25.815Z,97360.60
2023-01-13T09:04:53.640Z,97357.20
2023-01-13T09:07:20.515Z,97359.20
2023-01-13T09:09:47.400Z,97356.80
2023-01-13T09:12:34.760Z,97346.00
2023-01-13T09:15:03.247Z,97348.00
2023-01-13T09:17:30.046Z,97343.00
2023-01-13T09:19:56.759Z,97346.60
2023-01-13T09:22:27.149Z,97345.60
2023-01-13T09:24:55.268Z,97343.40
2023-01-13T09:27:23.133Z,97333.60
2023-01-13T09:29:50.033Z,97332.20
2023-01-13T09:32:16.885Z,97337.20
2023-01-13T09:35:02.418Z,97345.20
2023-01-13T09:37:30.032Z,97344.80
2023-01-13T09:39:57.417Z,97344.40
2023-01-13T09:42:58.492Z,97344.80
2023-01-13T09:45:41.687Z,97332.60
2023-01-13T09:48:20.280Z,97325.60
2023-01-13T09:50:52.837Z,97311.60
2023-01-13T09:53:25.780Z,97312.80
2023-01-13T09:55:53.161Z,97314.00
2023-01-13T09:58:20.182Z,97314.00
2023-01-13T10:00:50.698Z,97312.00
2023-01-13T10:03:32.118Z,97310.40
2023-01-13T10:06:26.988Z,97302.60
2023-01-13T10:08:53.813Z,97294.80
2023-01-13T10:11:50.873Z,97289.60
2023-01-13T10:14:28.821Z,97288.00
2023-01-13T10:17:51.330Z,97286.80
2023-01-13T10:20:24.711Z,97277.60
2023-01-13T10:23:27.165Z,97279.40
2023-01-13T10:26:21.147Z,97275.20
2023-01-13T10:28:52.857Z,97271.80
2023-01-13T10:31:22.233Z,97272.40
2023-01-13T10:33:57.663Z,97272.20
2023-01-13T10:36:24.724Z,97264.80
2023-01-13T10:38:52.072Z,97262.80
2023-01-13T10:41:26.115Z,97262.20
2023-01-13T10:43:52.741Z,97254.00
2023-01-13T10:46:20.683Z,97251.80
2023-01-13T10:49:23.609Z,97259.80
2023-01-13T10:51:50.319Z,97254.80
2023-01-13T10:54:20.343Z,97252.60
2023-01-13T10:56:47.098Z,97250.60
2023-01-13T10:59:19.717Z,97247.60
2023-01-13T11:02:19.821Z,97251.20
2023-01-13T11:05:09.531Z,97250.60
2023-01-13T11:07:45.934Z,97252.80
2023-01-13T11:10:27.390Z,97251.60
2023-01-13T11:12:54.654Z,97250.40
2023-01-13T11:15:34.086Z,97254.40
2023-01-13T11:18:09.840Z,97262.00
2023-01-13T11:20:41.312Z,97262.80
2023-01-13T11:23:27.600Z,97263.00
2023-01-13T11:26:01.230Z,97260.80
2023-01-13T11:28:45.572Z,97263.40
2023-01-13T11:31:22.758Z,97270.00
2023-01-13T11:33:49.473Z,97264.80
2023-01-13T11:36:32.794Z,97252.80
2023-01-13T11:39:12.749Z,97250.80
2023-01-13T11:41:43.791Z,97243.20
2023-01-13T11:44:38.700Z,97243.80
2023-01-13T11:47:05.475Z,97255.60
2023-01-13T11:49:33.735Z,97267.20
2023-01-13T11:52:09.459Z,97270.60
2023-01-13T11:55:09.973Z,97268.20
2023-01-13T11:57:45.589Z,97271.80
2023-01-13T12:00:15.547Z,97268.40
2023-01-13T12:03:27.413Z,97277.80
2023-01-13T12:05:58.799Z,97276.20
2023-01-13T12:08:42.744Z,97283.00
2023-01-13T12:11:18.686Z,97285.00
2023-01-13T12:14:04.830Z,97281.20
2023-01-13T12:16:32.920Z,97285.40
2023-01-13T12:19:25.140Z,97283.20
2023-01-13T12:21:57.783Z,97283.60
2023-01-13T12:24:38.548Z,97277.00
2023-01-13T12:27:31.608Z,97273.80
2023-01-13T12:30:01.759Z,97278.00
2023-01-13T12:32:36.353Z,97276.20
2023-01-13T12:35:09.134Z,97284.20
2023-01-13T12:37:39.453Z,97286.20
2023-01-13T12:40:06.193Z,97287.20
2023-01-13T12:43:07.076Z,97289.60
2023-01-13T12:45:34.392Z,97271.40
2023-01-13T12:48:01.338Z,97268.60
2023-01-13T12:50:28.197Z,97270.60
2023-01-13T12:53:34.041Z,97270.60
2023-01-13T12:56:44.800Z,97259.60
2023-01-13T12:59:19.190Z,97251.40
2023-01-13T13:01:49.263Z,97249.60
2023-01-13T13:04:41.533Z,97243.80
2023-01-13T13:07:12.624Z,97251.40
2023-01-13T13:09:53.408Z,97258.80
2023-01-13T13:13:00.849Z,97260.00
2023-01-13T13:15:37.254Z,97256.80
2023-01-13T13:18:20.482Z,97260.00
2023-01-13T13:21:09.773Z,97261.80
2023-01-13T13:24:07.688Z,97237.20
2023-01-13T13:26:40.005Z,97242.00
2023-01-13T13:29:30.717Z,97240.80
2023-01-13T13:32:21.967Z,97238.80
2023-01-13T13:35:14.549Z,97237.00
2023-01-13T13:38:18.718Z,97229.80
2023-01-13T13:41:06.599Z,97213.60
2023-01-13T13:43:59.475Z,97232.80
2023-01-13T13:46:49.638Z,97220.20
2023-01-13T13:49:19.337Z,97240.80
2023-01-13T13:52:00.696Z,97233.40
2023-01-13T13:54:28.189Z,97236.80
2023-01-13T13:56:54.962Z,97241.80
2023-01-13T13:59:24.840Z,97240.80
2023-01-13T14:02:01.840Z,97232.60
2023-01-13T14:04:32.604Z,97237.80
2023-01-13T14:07:05.013Z,97247.80
2023-01-13T14:09:42.043Z,97240.80
2023-01-13T14:12:21.948Z,97240.00
2023-01-13T14:14:49.823Z,97263.80
2023-01-13T14:17:28.405Z,97266.00
2023-01-13T14:20:02.712Z,97282.60
2023-01-13T14:22:29.427Z,97310.00
2023-01-13T14:24:57.887Z,97288.60
2023-01-13T14:27:27.878Z,97302.20
2023-01-13T14:29:58.159Z,97310.60
2023-01-13T14:32:31.961Z,97310.40
2023-01-13T14:34:58.623Z,97286.20
2023-01-13T14:37:31.493Z,97299.00
2023-01-13T14:39:58.436Z,97322.80
2023-01-13T14:42:27.627Z,97330.60
2023-01-13T14:44:56.262Z,97326.00
2023-01-13T14:47:32.295Z,97326.00
2023-01-13T14:50:11.147Z,97336.40
2023-01-13T14:52:48.430Z,97340.00
2023-01-13T14:55:29.452Z,97343.60
2023-01-13T14:58:31.177Z,97330.40
2023-01-13T15:01:26.268Z,97323.00
2023-01-13T15:03:53.047Z,97309.60
2023-01-13T15:06:25.631Z,97313.60
2023-01-13T15:08:52.884Z,97309.80
2023-01-13T15:11:26.663Z,97314.20
2023-01-13T15:14:02.844Z,97322.00
2023-01-13T15:16:33.830Z,97320.40
2023-01-13T15:19:01.663Z,97322.20
2023-01-13T15:21:28.370Z,97318.00
2023-01-13T15:23:55.135Z,97310.60
2023-01-13T15:26:24.193Z,97312.20
2023-01-13T15:28:52.294Z,97309.60
2023-01-13T15:31:19.487Z,97308.60
2023-01-13T15:33:46.488Z,97311.60
2023-01-13T15:36:20.092Z,97307.40
2023-01-13T15:38:46.774Z,97309.00
2023-01-13T15:41:13.980Z,97318.00
2023-01-13T15:43:59.743Z,97311.00
2023-01-13T15:46:38.928Z,97312.00
2023-01-13T15:49:17.105Z,97316.60
2023-01-13T15:51:44.565Z,97313.80
2023-01-13T15:54:12.152Z,97320.60
2023-01-13T15:56:39.384Z,97324.00
2023-01-13T15:59:16.445Z,97318.40
2023-01-13T16:01:43.514Z,97334.00
2023-01-13T16:04:10.754Z,97329.80
2023-01-13T16:06:37.443Z,97328.00
2023-01-13T16:09:05.572Z,97335.00
2023-01-13T16:11:32.511Z,97343.00
2023-01-13T16:13:59.486Z,97350.40
2023-01-13T16:16:28.633Z,97348.40
2023-01-13T16:18:56.109Z,97356.20
2023-01-13T16:21:23.476Z,97355.80
2023-01-13T16:23:51.935Z,97363.60
2023-01-13T16:26:30.107Z,97364.20
2023-01-13T16:28:58.047Z,97366.20
2023-01-13T16:31:32.464Z,97361.80
2023-01-13T16:34:01.312Z,97367.40
2023-01-13T16:36:30.235Z,97366.40
2023-01-13T16:38:57.161Z,97376.20
2023-01-13T16:41:26.937Z,97381.60
2023-01-13T16:43:54.111Z,97397.40
2023-01-13T16:46:29.389Z,97415.80
2023-01-13T16:48:58.102Z,97436.20
2023-01-13T16:51:24.962Z,97478.00
2023-01-13T16:53:52.059Z,97512.60
2023-01-13T16:56:22.643Z,97542.60
2023-01-13T16:58:50.095Z,97562.60
2023-01-13T17:01:28.403Z,97580.00
2023-01-13T17:03:56.301Z,97594.00
2023-01-13T17:06:35.933Z,97598.60
2023-01-13T17:09:06.914Z,97616.80
2023-01-13T17:11:34.328Z,97618.80
2023-01-13T17:14:08.966Z,97622.00
2023-01-13T17:16:46.963Z,97613.20
2023-01-13T17:19:14.163Z,97606.60
2023-01-13T17:21:41.245Z,97603.20
2023-01-13T17:24:09.794Z,97605.00
2023-01-13T17:26:42.657Z,97620.00
2023-01-13T17:29:15.283Z,97630.00
2023-01-13T17:31:42.156Z,97628.40
2023-01-13T17:34:11.638Z,97635.60
2023-01-13T17:36:39.243Z,97644.40
2023-01-13T17:39:07.379Z,97653.20
2023-01-13T17:41:34.107Z,97655.40
2023-01-13T17:44:02.186Z,97656.20
2023-01-13T17:46:29.359Z,97661.40
2023-01-13T17:48:56.704Z,97655.00
2023-01-13T17:51:25.576Z,97659.40
2023-01-13T17:53:53.935Z,97655.80
2023-01-13T17:56:21.411Z,97651.40
2023-01-13T17:58:49.117Z,97660.20
2023-01-13T18:01:21.417Z,97649.00
2023-01-13T18:03:49.307Z,97641.80
2023-01-13T18:06:22.580Z,97632.60
2023-01-13T18:08:50.357Z,97621.60
2023-01-13T18:11:19.434Z,97636.00
2023-01-13T18:13:50.110Z,97652.60
2023-01-13T18:16:19.214Z,97661.00
2023-01-13T18:18:48.258Z,97672.40
2023-01-13T18:21:40.944Z,97675.20
2023-01-13T18:24:34.793Z,97687.60
2023-01-13T18:27:22.942Z,97641.40
2023-01-13T18:29:55.207Z,97671.40
2023-01-13T18:32:24.440Z,97690.80
2023-01-13T18:35:01.648Z,97713.60
2023-01-13T18:37:35.393Z,97722.20
2023-01-13T18:40:02.497Z,97721.40
2023-01-13T18:42:48.231Z,97733.80
2023-01-13T18:45:15.876Z,97741.80
2023-01-13T18:47:42.698Z,97745.80
2023-01-13T18:50:13.735Z,97748.20
2023-01-13T18:52:41.440Z,97745.00
2023-01-13T18:55:08.956Z,97750.40
2023-01-13T18:57:43.105Z,97743.60
2023-01-13T19:00:12.854Z,97753.60
2023-01-13T19:02:40.054Z,97752.20
2023-01-13T19:05:07.522Z,97757.00
2023-01-13T19:07:35.924Z,97760.80
2023-01-13T19:10:05.038Z,97748.80
2023-01-13T19:12:33.880Z,97756.40
2023-01-13T19:15:02.173Z,97747.20
2023-01-13T19:17:34.880Z,97745.40
2023-01-13T19:20:02.515Z,97744.60
2023-01-13T19:22:32.949Z,97744.00
2023-01-13T19:25:02.171Z,97754.80
2023-01-13T19:27:30.258Z,97756.00
2023-01-13T19:30:00.841Z,97752.60
2023-01-13T19:32:31.372Z,97759.20
2023-01-13T19:34:59.986Z,97763.00
2023-01-13T19:37:30.763Z,97764.80
2023-01-13T19:39:59.367Z,97768.80
2023-01-13T19:42:45.570Z,97768.00
2023-01-13T19:45:31.331Z,97764.60
2023-01-13T19:48:02.096Z,97765.60
2023-01-13T19:50:29.550Z,97762.20
2023-01-13T19:52:57.390Z,97760.20
2023-01-13T19:55:24.738Z,97766.80
2023-01-13T19:57:51.922Z,97766.20
2023-01-13T20:00:21.144Z,97770.60
2023-01-13T20:02:52.202Z,97774.60
2023-01-13T20:05:22.954Z,97777.60
2023-01-13T20:07:51.106Z,97765.80
2023-01-13T20:10:20.862Z,97767.20
2023-01-13T20:12:48.661Z,97771.20
2023-01-13T20:15:16.345Z,97771.00
2023-01-13T20:17:43.219Z,97760.20
2023-01-13T20:20:12.135Z,97755.20
2023-01-13T20:22:40.104Z,97761.20
2023-01-13T20:25:09.048Z,97765.80
2023-01-13T20:27:36.778Z,97769.80
2023-01-13T20:30:05.876Z,97769.80
2023-01-13T20:32:34.441Z,97768.20
2023-01-13T20:35:01.165Z,97773.60
2023-01-13T20:37:28.240Z,97782.60
2023-01-13T20:39:57.612Z,97788.60
2023-01-13T20:42:31.280Z,97798.20
2023-01-13T20:44:59.811Z,97799.80
2023-01-13T20:47:28.691Z,97817.40
2023-01-13T20:49:56.597Z,97829.40
2023-01-13T20:52:24.242Z,97813.40
2023-01-13T20:54:51.613Z,97810.80
2023-01-13T20:57:18.930Z,97805.00
2023-01-13T20:59:46.310Z,97821.40
2023-01-13T21:02:15.406Z,97845.40
2023-01-13T21:04:43.036Z,97815.20
2023-01-13T21:07:10.290Z,97802.80
2023-01-13T21:09:37.202Z,97812.40
2023-01-13T21:12:24.633Z,97813.20
2023-01-13T21:15:10.135Z,97813.40
2023-01-13T21:17:55.908Z,97812.20
2023-01-13T21:20:22.613Z,97809.80
2023-01-13T21:22:49.765Z,97806.40
2023-01-13T21:25:17.873Z,97810.60
2023-01-13T21:27:44.726Z,97797.40
2023-01-13T21:30:15.834Z,97799.00
2023-01-13T21:32:44.417Z,97798.60
2023-01-13T21:35:12.424Z,97793.20
2023-01-13T21:37:40.520Z,97787.20
2023-01-13T21:40:10.312Z,97786.20
2023-01-13T21:42:55.883Z,97791.20
2023-01-13T21:45:41.727Z,97785.40
2023-01-13T21:48:08.881Z,97780.80
2023-01-13T21:50:38.258Z,97785.40
2023-01-13T21:53:05.419Z,97785.80
2023-01-13T21:55:32.994Z,97786.60
2023-01-13T21:58:14.261Z,97783.00
2023-01-13T22:00:43.897Z,97789.00
2023-01-13T22:03:12.988Z,97794.80
2023-01-13T22:05:40.157Z,97792.20
2023-01-13T22:08:08.137Z,97796.40
2023-01-13T22:10:35.080Z,97801.40
2023-01-13T22:13:22.904Z,97803.60
2023-01-13T22:15:49.858Z,97802.60
2023-01-13T22:18:18.394Z,97806.40
2023-01-13T22:20:45.774Z,97808.80
2023-01-13T22:23:12.514Z,97813.20
2023-01-13T22:25:39.375Z,97817.40
2023-01-13T22:28:08.778Z,97822.60
2023-01-13T22:30:35.606Z,97823.00
2023-01-13T22:33:02.255Z,97831.00
2023-01-13T22:35:29.016Z,97829.40
2023-01-13T22:37:55.749Z,97833.20
2023-01-13T22:40:22.548Z,97828.20
2023-01-13T22:42:49.217Z,97825.20
2023-01-13T22:45:16.059Z,97826.60
2023-01-13T22:47:42.902Z,97825.40
2023-01-13T22:50:10.377Z,97824.80
2023-01-13T22:52:37.158Z,97828.40
2023-01-13T22:55:06.908Z,97826.20
2023-01-13T22:57:36.545Z,97824.20
2023-01-13T23:00:10.729Z,97828.20
2023-01-13T23:02:40.499Z,97832.80
2023-01-13T23:05:07.694Z,97830.40
2023-01-13T23:07:35.665Z,97823.80
2023-01-13T23:10:02.938Z,97828.00
2023-01-13T23:12:29.613Z,97822.60
2023-01-13T23:14:56.297Z,97822.40
2023-01-13T23:17:23.032Z,97822.20
2023-01-13T23:19:49.770Z,97834.00
2023-01-13T23:22:16.441Z,97834.60
2023-01-13T23:24:43.135Z,97838.00
2023-01-13T23:27:09.892Z,97840.20
2023-01-13T23:29:36.836Z,97840.00
2023-01-13T23:32:03.685Z,97837.60
2023-01-13T23:34:30.413Z,97845.60
2023-01-13T23:36:57.156Z,97853.40
2023-01-13T23:39:24.755Z,97854.20
2023-01-13T23:41:51.461Z,97857.00
2023-01-13T23:44:18.189Z,97866.00
2023-01-13T23:46:44.877Z,97871.20
2023-01-13T23:49:11.705Z,97869.60
2023-01-13T23:51:38.668Z,97873.80
2023-01-13T23:54:05.347Z,97871.80
2023-01-13T23:56:32.086Z,97875.80
2023-01-13T23:58:59.161Z,97876.80
